Ida — C4CZ2 — position and weather

sailwx.info

Track history (hours):
 
Tides and Currents Weather Stations Pressure Air Temp Water Temp Dewpoint Dewpoint Depression Visibility Wind Speed Wind Dir Waves Ship Positions

Ida

Last reported at 2014-Jul-24 01:33 UTC. Time now 2014-Jul-24 01:57 UTC.
Position N 49°02' W 005°21'.

Length 82 m; draft 3 m.

Type: Cargo ship. MMSI: 210319000.

Date/timePositionNaut miles runAvg speedWind from/ knotsBaromVisibWave heightAir tempDewpointWater temp
2014-Jul-24 01:33N 49°02' W 005°21'182 5.5
2014-Jul-22 16:28N 51°55' W 006°51'8 9.0
2014-Jul-22 15:33N 52°03' W 006°54'9 8.9
2014-Jul-22 14:33N 52°12' W 006°56'7 7.3
2014-Jul-22 13:33N 52°19' W 007°00'5 5.2
2014-Jul-22 12:33N 52°24' W 006°57'0 0.0
2014-Jul-22 11:32N 52°24' W 006°57'0 0.0
2014-Jul-22 10:32N 52°24' W 006°57'0 0.0
2014-Jul-22 09:32N 52°24' W 006°57'0 0.0
2014-Jul-22 08:32N 52°24' W 006°57'0 0.0
2014-Jul-22 07:29N 52°24' W 006°57'0 0.0
2014-Jul-22 06:32N 52°24' W 006°57'0 0.0
2014-Jul-22 05:29N 52°24' W 006°57'0 0.0
2014-Jul-22 04:29N 52°24' W 006°57'0 0.0
2014-Jul-22 03:29N 52°24' W 006°57'0 0.0
2014-Jul-22 02:32N 52°24' W 006°57'0 0.0
2014-Jul-22 01:32N 52°24' W 006°57'0 0.0
2014-Jul-22 00:32N 52°24' W 006°57'0 0.0
2014-Jul-21 23:29N 52°24' W 006°57'0 0.0
2014-Jul-21 22:26N 52°24' W 006°57'0 0.0
2014-Jul-21 21:20N 52°24' W 006°57'0 0.0
2014-Jul-21 20:32N 52°24' W 006°57'0 0.0
2014-Jul-21 20:17N 52°24' W 006°57'0 0.0
2014-Jul-21 19:32N 52°24' W 006°57'0 0.0
2014-Jul-21 18:32N 52°24' W 006°57'0 0.0
2014-Jul-21 17:29N 52°24' W 006°57'0 0.0
2014-Jul-21 16:26N 52°24' W 006°57'0 0.0
2014-Jul-21 15:32N 52°24' W 006°57'0 0.0
2014-Jul-21 14:23N 52°24' W 006°57'0 0.0
2014-Jul-21 13:29N 52°24' W 006°57'0 0.0
2014-Jul-21 12:20N 52°24' W 006°57'0 0.0
2014-Jul-21 11:29N 52°24' W 006°57'0 0.0
2014-Jul-21 10:32N 52°24' W 006°57'0 0.0
2014-Jul-21 09:26N 52°24' W 006°57'0 0.0
2014-Jul-21 08:32N 52°24' W 006°57'0 0.0
2014-Jul-21 07:32N 52°24' W 006°57'0 0.0
2014-Jul-21 06:26N 52°24' W 006°57'0 0.0
2014-Jul-21 05:29N 52°24' W 006°57'0 0.0
2014-Jul-21 04:32N 52°24' W 006°57'0 0.0
2014-Jul-21 03:32N 52°24' W 006°57'0 0.0
2014-Jul-21 02:29N 52°24' W 006°57'0 0.0
2014-Jul-21 01:23N 52°24' W 006°57'0 0.0
2014-Jul-21 00:32N 52°24' W 006°57'0 0.0
2014-Jul-20 23:32N 52°24' W 006°57'0 0.0
2014-Jul-20 22:29N 52°24' W 006°57'0 0.0
2014-Jul-20 21:32N 52°24' W 006°57'0 0.0
2014-Jul-20 19:32N 52°24' W 006°57'0 0.0
2014-Jul-20 18:14N 52°24' W 006°57'0 0.0
2014-Jul-20 15:20N 52°24' W 006°57'0 0.0
2014-Jul-20 12:32N 52°24' W 006°57'5 5.2
2014-Jul-20 11:34N 52°19' W 007°00'8 7.6
2014-Jul-20 10:33N 52°12' W 006°56'3 3.0
2014-Jul-20 09:33N 52°09' W 006°58'0 0.1
2014-Jul-20 08:33N 52°09' W 006°58'0 0.0
2014-Jul-20 07:33N 52°09' W 006°58'0 0.0
2014-Jul-20 06:33N 52°09' W 006°58'0 0.0
2014-Jul-20 05:33N 52°09' W 006°58'0 0.0
2014-Jul-20 04:30N 52°09' W 006°58'0 0.0
2014-Jul-20 03:12N 52°09' W 006°58'0 0.0
2014-Jul-20 02:30N 52°09' W 006°58'0 0.0
2014-Jul-20 01:18N 52°09' W 006°58'0 0.0
2014-Jul-20 00:33N 52°09' W 006°58'0 0.0
2014-Jul-19 23:33N 52°09' W 006°58'0 0.0
2014-Jul-19 22:33N 52°09' W 006°58'0 0.0
2014-Jul-19 21:33N 52°09' W 006°58'0 0.0
2014-Jul-19 20:21N 52°09' W 006°58'0 0.0
2014-Jul-19 18:27N 52°09' W 006°58'0 0.0
2014-Jul-19 17:33N 52°09' W 006°58'0 0.0
2014-Jul-19 16:33N 52°09' W 006°58'0 0.0
2014-Jul-19 15:30N 52°09' W 006°58'0 0.0
2014-Jul-19 14:33N 52°09' W 006°58'0 0.0
2014-Jul-19 13:30N 52°09' W 006°58'0 0.0
2014-Jul-19 11:33N 52°09' W 006°58'0 0.0
2014-Jul-19 10:33N 52°09' W 006°58'4 3.7
2014-Jul-19 09:34N 52°05' W 006°56'10 9.8
2014-Jul-19 08:33N 51°56' W 006°51'175 7.2
2014-Jul-18 08:13N 50°08' W 003°12'75 9.3
2014-Jul-18 00:10N 50°23' W 001°17'3 5.7
2014-Jul-17 23:33N 50°23' W 001°11'6 6.1
2014-Jul-17 22:33N 50°24' W 001°02'8 7.8
2014-Jul-17 21:33N 50°26' W 000°50'3311.1
2014-Jul-17 18:32N 50°33' E 000°01'1111.4
2014-Jul-17 17:33N 50°35' E 000°18'1110.9
2014-Jul-17 16:33N 50°39' E 000°35'10 9.9
2014-Jul-17 15:33N 50°44' E 000°47'9 9.2
2014-Jul-17 14:33N 50°50' E 000°59'9 9.3
2014-Jul-17 13:33N 50°56' E 001°10'1010.4
2014-Jul-17 12:33N 51°03' E 001°23'1313.3
2014-Jul-17 11:33N 51°11' E 001°40'1312.8
2014-Jul-17 10:33N 51°21' E 001°52'1111.4
2014-Jul-17 09:34N 51°31' E 002°02'1010.1
2014-Jul-17 08:33N 51°38' E 002°13'9 9.1
2014-Jul-17 07:33N 51°45' E 002°22'32 8.1
2014-Jul-17 03:32N 52°10' E 002°57'9 9.5
2014-Jul-17 02:33N 52°17' E 003°06'1010.5
2014-Jul-17 01:33N 52°26' E 003°15'1111.0
2014-Jul-17 00:32N 52°35' E 003°26'1111.1
2014-Jul-16 23:33N 52°43' E 003°38'1110.6
2014-Jul-16 22:33N 52°51' E 003°49'10 9.6
2014-Jul-16 21:33N 52°58' E 003°60'9 8.9
2014-Jul-16 20:33N 53°04' E 004°11'8 8.2
2014-Jul-16 19:33N 53°10' E 004°21'18 8.1
2014-Jul-16 17:17N 53°26' E 004°35'810.0
2014-Jul-16 16:32N 53°30' E 004°46'1211.0
2014-Jul-16 15:25N 53°35' E 005°04'910.7
2014-Jul-16 14:33N 53°38' E 005°19'1010.1
2014-Jul-16 13:33N 53°41' E 005°36'9 9.3
2014-Jul-16 12:33N 53°44' E 005°50'62 8.8
2014-Jul-16 05:33N 54°01' E 007°32'1010.1
2014-Jul-16 04:33N 54°02' E 007°49'1010.3
2014-Jul-16 03:34N 54°01' E 008°06'1010.0
2014-Jul-16 02:33N 53°60' E 008°23'9 8.8
2014-Jul-16 01:33N 53°58' E 008°37'7 7.0
2014-Jul-16 00:33N 53°52' E 008°44'7 6.8
2014-Jul-15 23:33N 53°51' E 008°56'8 7.6
2014-Jul-15 22:29N 53°54' E 009°09'0 0.5
2014-Jul-15 21:33N 53°54' E 009°09'0 0.0
2014-Jul-15 20:33N 53°54' E 009°09'7 6.9
2014-Jul-15 19:31N 53°59' E 009°17'8 8.2
2014-Jul-15 18:32N 54°07' E 009°20'2 2.0
2014-Jul-15 17:32N 54°09' E 009°22'64 4.7
2014-Jul-15 04:04N 54°36' E 011°01'5 8.8
2014-Jul-15 03:33N 54°36' E 011°09'9 9.0
2014-Jul-15 02:33N 54°33' E 011°23'9 8.9
2014-Jul-15 01:33N 54°30' E 011°37'9 8.6
2014-Jul-15 00:33N 54°27' E 011°52'8 8.4
2014-Jul-14 23:33N 54°27' E 012°06'9 8.5
2014-Jul-14 22:32N 54°34' E 012°14'10 8.8
2014-Jul-14 21:23N 54°41' E 012°27'7 8.6
2014-Jul-14 20:32N 54°45' E 012°37'66 6.4
2014-Jul-14 10:17N 55°15' E 014°19'10 8.8
2014-Jul-14 09:09N 55°23' E 014°30'60 8.9
2014-Jul-14 02:24N 55°55' E 016°01'8 9.5
2014-Jul-14 01:33N 55°59' E 016°13'  
Track history (hours):
 
Tides and Currents Weather Stations Pressure Air Temp Water Temp Dewpoint Dewpoint Depression Visibility Wind Speed Wind Dir Waves Ship Positions

Ida

Last reported at 2014-Jul-24 01:33 UTC. Time now 2014-Jul-24 01:58 UTC.
Position N 49°02' W 005°21'.

Length 82 m; draft 3 m.

Type: Cargo ship. MMSI: 210319000.

Date/timePositionNaut miles runAvg speedWind from/ knotsBaromVisibWave heightAir tempDewpointWater temp
2014-Jul-24 01:33N 49°02' W 005°21'182 5.5
2014-Jul-22 16:28N 51°55' W 006°51'8 9.0
2014-Jul-22 15:33N 52°03' W 006°54'9 8.9
2014-Jul-22 14:33N 52°12' W 006°56'7 7.3
2014-Jul-22 13:33N 52°19' W 007°00'5 5.2
2014-Jul-22 12:33N 52°24' W 006°57'0 0.0
2014-Jul-22 11:32N 52°24' W 006°57'0 0.0
2014-Jul-22 10:32N 52°24' W 006°57'0 0.0
2014-Jul-22 09:32N 52°24' W 006°57'0 0.0
2014-Jul-22 08:32N 52°24' W 006°57'0 0.0
2014-Jul-22 07:29N 52°24' W 006°57'0 0.0
2014-Jul-22 06:32N 52°24' W 006°57'0 0.0
2014-Jul-22 05:29N 52°24' W 006°57'0 0.0
2014-Jul-22 04:29N 52°24' W 006°57'0 0.0
2014-Jul-22 03:29N 52°24' W 006°57'0 0.0
2014-Jul-22 02:32N 52°24' W 006°57'0 0.0
2014-Jul-22 01:32N 52°24' W 006°57'0 0.0
2014-Jul-22 00:32N 52°24' W 006°57'0 0.0
2014-Jul-21 23:29N 52°24' W 006°57'0 0.0
2014-Jul-21 22:26N 52°24' W 006°57'0 0.0
2014-Jul-21 21:20N 52°24' W 006°57'0 0.0
2014-Jul-21 20:32N 52°24' W 006°57'0 0.0
2014-Jul-21 20:17N 52°24' W 006°57'0 0.0
2014-Jul-21 19:32N 52°24' W 006°57'0 0.0
2014-Jul-21 18:32N 52°24' W 006°57'0 0.0
2014-Jul-21 17:29N 52°24' W 006°57'0 0.0
2014-Jul-21 16:26N 52°24' W 006°57'0 0.0
2014-Jul-21 15:32N 52°24' W 006°57'0 0.0
2014-Jul-21 14:23N 52°24' W 006°57'0 0.0
2014-Jul-21 13:29N 52°24' W 006°57'0 0.0
2014-Jul-21 12:20N 52°24' W 006°57'0 0.0
2014-Jul-21 11:29N 52°24' W 006°57'0 0.0
2014-Jul-21 10:32N 52°24' W 006°57'0 0.0
2014-Jul-21 09:26N 52°24' W 006°57'0 0.0
2014-Jul-21 08:32N 52°24' W 006°57'0 0.0
2014-Jul-21 07:32N 52°24' W 006°57'0 0.0
2014-Jul-21 06:26N 52°24' W 006°57'0 0.0
2014-Jul-21 05:29N 52°24' W 006°57'0 0.0
2014-Jul-21 04:32N 52°24' W 006°57'0 0.0
2014-Jul-21 03:32N 52°24' W 006°57'0 0.0
2014-Jul-21 02:29N 52°24' W 006°57'0 0.0
2014-Jul-21 01:23N 52°24' W 006°57'0 0.0
2014-Jul-21 00:32N 52°24' W 006°57'0 0.0
2014-Jul-20 23:32N 52°24' W 006°57'0 0.0
2014-Jul-20 22:29N 52°24' W 006°57'0 0.0
2014-Jul-20 21:32N 52°24' W 006°57'0 0.0
2014-Jul-20 19:32N 52°24' W 006°57'0 0.0
2014-Jul-20 18:14N 52°24' W 006°57'0 0.0
2014-Jul-20 15:20N 52°24' W 006°57'0 0.0
2014-Jul-20 12:32N 52°24' W 006°57'5 5.2
2014-Jul-20 11:34N 52°19' W 007°00'8 7.6
2014-Jul-20 10:33N 52°12' W 006°56'3 3.0
2014-Jul-20 09:33N 52°09' W 006°58'0 0.1
2014-Jul-20 08:33N 52°09' W 006°58'0 0.0
2014-Jul-20 07:33N 52°09' W 006°58'0 0.0
2014-Jul-20 06:33N 52°09' W 006°58'0 0.0
2014-Jul-20 05:33N 52°09' W 006°58'0 0.0
2014-Jul-20 04:30N 52°09' W 006°58'0 0.0
2014-Jul-20 03:12N 52°09' W 006°58'0 0.0
2014-Jul-20 02:30N 52°09' W 006°58'0 0.0
2014-Jul-20 01:18N 52°09' W 006°58'0 0.0
2014-Jul-20 00:33N 52°09' W 006°58'0 0.0
2014-Jul-19 23:33N 52°09' W 006°58'0 0.0
2014-Jul-19 22:33N 52°09' W 006°58'0 0.0
2014-Jul-19 21:33N 52°09' W 006°58'0 0.0
2014-Jul-19 20:21N 52°09' W 006°58'0 0.0
2014-Jul-19 18:27N 52°09' W 006°58'0 0.0
2014-Jul-19 17:33N 52°09' W 006°58'0 0.0
2014-Jul-19 16:33N 52°09' W 006°58'0 0.0
2014-Jul-19 15:30N 52°09' W 006°58'0 0.0
2014-Jul-19 14:33N 52°09' W 006°58'0 0.0
2014-Jul-19 13:30N 52°09' W 006°58'0 0.0
2014-Jul-19 11:33N 52°09' W 006°58'0 0.0
2014-Jul-19 10:33N 52°09' W 006°58'4 3.7
2014-Jul-19 09:34N 52°05' W 006°56'10 9.8
2014-Jul-19 08:33N 51°56' W 006°51'175 7.2
2014-Jul-18 08:13N 50°08' W 003°12'75 9.3
2014-Jul-18 00:10N 50°23' W 001°17'3 5.7
2014-Jul-17 23:33N 50°23' W 001°11'6 6.1
2014-Jul-17 22:33N 50°24' W 001°02'8 7.8
2014-Jul-17 21:33N 50°26' W 000°50'3311.1
2014-Jul-17 18:32N 50°33' E 000°01'1111.4
2014-Jul-17 17:33N 50°35' E 000°18'1110.9
2014-Jul-17 16:33N 50°39' E 000°35'10 9.9
2014-Jul-17 15:33N 50°44' E 000°47'9 9.2
2014-Jul-17 14:33N 50°50' E 000°59'9 9.3
2014-Jul-17 13:33N 50°56' E 001°10'1010.4
2014-Jul-17 12:33N 51°03' E 001°23'1313.3
2014-Jul-17 11:33N 51°11' E 001°40'1312.8
2014-Jul-17 10:33N 51°21' E 001°52'1111.4
2014-Jul-17 09:34N 51°31' E 002°02'1010.1
2014-Jul-17 08:33N 51°38' E 002°13'9 9.1
2014-Jul-17 07:33N 51°45' E 002°22'32 8.1
2014-Jul-17 03:32N 52°10' E 002°57'9 9.5
2014-Jul-17 02:33N 52°17' E 003°06'1010.5
2014-Jul-17 01:33N 52°26' E 003°15'1111.0
2014-Jul-17 00:32N 52°35' E 003°26'1111.1
2014-Jul-16 23:33N 52°43' E 003°38'1110.6
2014-Jul-16 22:33N 52°51' E 003°49'10 9.6
2014-Jul-16 21:33N 52°58' E 003°60'9 8.9
2014-Jul-16 20:33N 53°04' E 004°11'8 8.2
2014-Jul-16 19:33N 53°10' E 004°21'18 8.1
2014-Jul-16 17:17N 53°26' E 004°35'810.0
2014-Jul-16 16:32N 53°30' E 004°46'1211.0
2014-Jul-16 15:25N 53°35' E 005°04'910.7
2014-Jul-16 14:33N 53°38' E 005°19'1010.1
2014-Jul-16 13:33N 53°41' E 005°36'9 9.3
2014-Jul-16 12:33N 53°44' E 005°50'62 8.8
2014-Jul-16 05:33N 54°01' E 007°32'1010.1
2014-Jul-16 04:33N 54°02' E 007°49'1010.3
2014-Jul-16 03:34N 54°01' E 008°06'1010.0
2014-Jul-16 02:33N 53°60' E 008°23'9 8.8
2014-Jul-16 01:33N 53°58' E 008°37'7 7.0
2014-Jul-16 00:33N 53°52' E 008°44'7 6.8
2014-Jul-15 23:33N 53°51' E 008°56'8 7.6
2014-Jul-15 22:29N 53°54' E 009°09'0 0.5
2014-Jul-15 21:33N 53°54' E 009°09'0 0.0
2014-Jul-15 20:33N 53°54' E 009°09'7 6.9
2014-Jul-15 19:31N 53°59' E 009°17'8 8.2
2014-Jul-15 18:32N 54°07' E 009°20'2 2.0
2014-Jul-15 17:32N 54°09' E 009°22'64 4.7
2014-Jul-15 04:04N 54°36' E 011°01'5 8.8
2014-Jul-15 03:33N 54°36' E 011°09'9 9.0
2014-Jul-15 02:33N 54°33' E 011°23'9 8.9
2014-Jul-15 01:33N 54°30' E 011°37'9 8.6
2014-Jul-15 00:33N 54°27' E 011°52'8 8.4
2014-Jul-14 23:33N 54°27' E 012°06'9 8.5
2014-Jul-14 22:32N 54°34' E 012°14'10 8.8
2014-Jul-14 21:23N 54°41' E 012°27'7 8.6
2014-Jul-14 20:32N 54°45' E 012°37'66 6.4
2014-Jul-14 10:17N 55°15' E 014°19'10 8.8
2014-Jul-14 09:09N 55°23' E 014°30'60 8.9
2014-Jul-14 02:24N 55°55' E 016°01'8 9.5
2014-Jul-14 01:33N 55°59' E 016°13'  

Dump ship's entire track history